Zim Rio Grande — 9HNV9 — position and weather

sailwx.info

Track history (hours):
 
Tides and Currents Weather Stations Pressure Air Temp Water Temp Dewpoint Dewpoint Depression Visibility Wind Speed Wind Dir Waves Ship Positions

Zim Rio Grande

Last reported at 2014-Jul-28 18:31 UTC. Time now 2014-Jul-29 20:55 UTC.
Position N 39°31' W 073°54'.

Length 260 m; draft 10.6 m.

Type: Ship (hazmat cat A). MMSI: 249253000.

Date/timePositionNaut miles runAvg speedWind from/ knotsBaromVisibWave heightAir tempDewpointWater temp
2014-Jul-28 18:31N 39°31' W 073°54'1414.8
2014-Jul-28 17:33N 39°45' W 073°52'1514.9
2014-Jul-28 16:33N 40°00' W 073°51'1514.8
2014-Jul-28 15:33N 40°15' W 073°49'1313.1
2014-Jul-28 14:33N 40°28' W 073°51'1413.6
2014-Jul-28 13:33N 40°38' W 074°03'5 4.6
2014-Jul-28 12:33N 40°40' W 074°08'0 0.3
2014-Jul-28 11:33N 40°41' W 074°08'0 0.0
2014-Jul-28 10:33N 40°41' W 074°08'0 0.0
2014-Jul-28 09:33N 40°41' W 074°08'0 0.0
2014-Jul-28 08:27N 40°41' W 074°08'0 0.0
2014-Jul-28 07:33N 40°41' W 074°08'0 0.0
2014-Jul-28 06:33N 40°41' W 074°08'0 0.0
2014-Jul-28 05:30N 40°40' W 074°08'0 0.0
2014-Jul-28 04:33N 40°41' W 074°08'0 0.0
2014-Jul-28 03:30N 40°41' W 074°08'0 0.0
2014-Jul-28 02:33N 40°41' W 074°08'0 0.0
2014-Jul-28 01:33N 40°41' W 074°08'0 0.0
2014-Jul-28 00:33N 40°41' W 074°08'0 0.0
2014-Jul-27 23:30N 40°41' W 074°08'0 0.0
2014-Jul-27 22:33N 40°41' W 074°08'0 0.0
2014-Jul-27 21:33N 40°41' W 074°08'2 2.1
2014-Jul-27 20:33N 40°39' W 074°07'10 9.9
2014-Jul-27 19:33N 40°31' W 073°59'1311.4
2014-Jul-27 18:27N 40°27' W 073°43'3315.1
2014-Jul-27 16:16N 40°30' W 072°60'1116.1
2014-Jul-27 15:33N 40°31' W 072°45'1616.0
2014-Jul-27 14:33N 40°31' W 072°24'1615.9
2014-Jul-27 13:34N 40°31' W 072°03'1616.0
2014-Jul-27 12:33N 40°31' W 071°42'1413.5
2014-Jul-27 11:34N 40°32' W 071°24'1616.1
2014-Jul-27 10:33N 40°32' W 071°03'1616.1
2014-Jul-27 09:33N 40°33' W 070°42'1616.3
2014-Jul-27 08:33N 40°33' W 070°20'1616.3
2014-Jul-27 07:33N 40°33' W 069°59'1616.1
2014-Jul-27 06:33N 40°33' W 069°38'1616.2
2014-Jul-27 05:33N 40°34' W 069°16'1616.1
2014-Jul-27 04:33N 40°38' W 068°56'1616.0
2014-Jul-27 03:34N 40°44' W 068°36'1616.1
2014-Jul-27 02:33N 40°51' W 068°17'1616.1
2014-Jul-27 01:33N 40°58' W 067°58'6516.1
2014-Jul-26 21:30N 41°33' W 066°44'1616.7
2014-Jul-26 20:33N 41°43' W 066°28'2416.3
2014-Jul-26 19:05N 41°59' W 066°05'  
Track history (hours):
 
Tides and Currents Weather Stations Pressure Air Temp Water Temp Dewpoint Dewpoint Depression Visibility Wind Speed Wind Dir Waves Ship Positions

Zim Rio Grande

Last reported at 2014-Jul-28 18:31 UTC. Time now 2014-Jul-29 20:55 UTC.
Position N 39°31' W 073°54'.

Length 260 m; draft 10.6 m.

Type: Ship (hazmat cat A). MMSI: 249253000.

Date/timePositionNaut miles runAvg speedWind from/ knotsBaromVisibWave heightAir tempDewpointWater temp
2014-Jul-28 18:31N 39°31' W 073°54'1414.8
2014-Jul-28 17:33N 39°45' W 073°52'1514.9
2014-Jul-28 16:33N 40°00' W 073°51'1514.8
2014-Jul-28 15:33N 40°15' W 073°49'1313.1
2014-Jul-28 14:33N 40°28' W 073°51'1413.6
2014-Jul-28 13:33N 40°38' W 074°03'5 4.6
2014-Jul-28 12:33N 40°40' W 074°08'0 0.3
2014-Jul-28 11:33N 40°41' W 074°08'0 0.0
2014-Jul-28 10:33N 40°41' W 074°08'0 0.0
2014-Jul-28 09:33N 40°41' W 074°08'0 0.0
2014-Jul-28 08:27N 40°41' W 074°08'0 0.0
2014-Jul-28 07:33N 40°41' W 074°08'0 0.0
2014-Jul-28 06:33N 40°41' W 074°08'0 0.0
2014-Jul-28 05:30N 40°40' W 074°08'0 0.0
2014-Jul-28 04:33N 40°41' W 074°08'0 0.0
2014-Jul-28 03:30N 40°41' W 074°08'0 0.0
2014-Jul-28 02:33N 40°41' W 074°08'0 0.0
2014-Jul-28 01:33N 40°41' W 074°08'0 0.0
2014-Jul-28 00:33N 40°41' W 074°08'0 0.0
2014-Jul-27 23:30N 40°41' W 074°08'0 0.0
2014-Jul-27 22:33N 40°41' W 074°08'0 0.0
2014-Jul-27 21:33N 40°41' W 074°08'2 2.1
2014-Jul-27 20:33N 40°39' W 074°07'10 9.9
2014-Jul-27 19:33N 40°31' W 073°59'1311.4
2014-Jul-27 18:27N 40°27' W 073°43'3315.1
2014-Jul-27 16:16N 40°30' W 072°60'1116.1
2014-Jul-27 15:33N 40°31' W 072°45'1616.0
2014-Jul-27 14:33N 40°31' W 072°24'1615.9
2014-Jul-27 13:34N 40°31' W 072°03'1616.0
2014-Jul-27 12:33N 40°31' W 071°42'1413.5
2014-Jul-27 11:34N 40°32' W 071°24'1616.1
2014-Jul-27 10:33N 40°32' W 071°03'1616.1
2014-Jul-27 09:33N 40°33' W 070°42'1616.3
2014-Jul-27 08:33N 40°33' W 070°20'1616.3
2014-Jul-27 07:33N 40°33' W 069°59'1616.1
2014-Jul-27 06:33N 40°33' W 069°38'1616.2
2014-Jul-27 05:33N 40°34' W 069°16'1616.1
2014-Jul-27 04:33N 40°38' W 068°56'1616.0
2014-Jul-27 03:34N 40°44' W 068°36'1616.1
2014-Jul-27 02:33N 40°51' W 068°17'1616.1
2014-Jul-27 01:33N 40°58' W 067°58'6516.1
2014-Jul-26 21:30N 41°33' W 066°44'1616.7
2014-Jul-26 20:33N 41°43' W 066°28'2416.3
2014-Jul-26 19:05N 41°59' W 066°05'  

Dump ship's entire track history